Time;durP1;ratioP1;P1;durP2;ratioP2;P2;SDS_P1;SDS_P2;PMS_P1;PMS_P2;Temp;Humidity;BMP_temperature;BMP_pressure;BME280_temperature;BME280_humidity;BME280_pressure;Samples;Min_cycle;Max_cycle;Signal;HPM_P1;HPM_P2
2023/02/14 00:02:08;;;;;;;6.65;3.92;;;7.50;71.10;;;;;;5058195;28;20086;-59
2023/02/14 00:04:37;;;;;;;5.68;3.75;;;7.50;71.10;;;;;;5053640;28;20037;-57
2023/02/14 00:07:03;;;;;;;7.15;3.95;;;7.40;71.20;;;;;;5054095;28;20486;-58
2023/02/14 00:09:29;;;;;;;8.20;3.75;;;7.40;71.30;;;;;;5059404;28;20450;-60
2023/02/14 00:11:54;;;;;;;5.78;3.22;;;7.40;71.40;;;;;;5059277;28;20029;-59
2023/02/14 00:17:04;;;;;;;5.18;3.50;;;7.30;71.40;;;;;;5057744;28;20040;-59
2023/02/14 00:19:30;;;;;;;4.95;3.33;;;7.30;71.50;;;;;;5058215;28;20024;-59
2023/02/14 00:21:56;;;;;;;4.32;3.30;;;7.30;71.50;;;;;;5057373;28;20118;-60
2023/02/14 00:24:25;;;;;;;5.57;3.33;;;7.30;71.50;;;;;;5051140;28;20312;-59
2023/02/14 00:26:51;;;;;;;5.53;3.42;;;7.30;71.50;;;;;;5052647;28;20399;-58
2023/02/14 00:29:20;;;;;;;6.57;4.22;;;7.20;71.50;;;;;;5052415;28;20048;-60
2023/02/14 00:31:45;;;;;;;6.97;3.30;;;7.20;71.50;;;;;;5052615;28;20028;-58
2023/02/14 00:34:13;;;;;;;6.22;3.72;;;7.20;71.60;;;;;;5049390;28;20385;-61
2023/02/14 00:36:38;;;;;;;5.10;3.15;;;7.20;71.60;;;;;;5050190;28;20016;-61
2023/02/14 00:39:06;;;;;;;6.97;3.80;;;7.10;71.60;;;;;;5043476;28;20029;-59
2023/02/14 00:41:32;;;;;;;5.70;3.10;;;7.10;71.60;;;;;;5042053;28;20028;-60
2023/02/14 00:43:58;;;;;;;4.88;3.45;;;7.10;71.60;;;;;;5049691;28;20040;-59
2023/02/14 00:46:25;;;;;;;3.75;3.40;;;7.10;71.60;;;;;;5049243;28;20041;-60
2023/02/14 00:48:51;;;;;;;7.63;4.05;;;7.00;71.60;;;;;;5052709;28;20032;-60
2023/02/14 00:51:18;;;;;;;5.00;3.67;;;7.00;71.60;;;;;;5059187;28;20022;-58
2023/02/14 00:53:46;;;;;;;4.85;2.92;;;7.00;71.70;;;;;;5051868;28;20036;-60
2023/02/14 00:56:12;;;;;;;7.80;3.67;;;7.00;71.80;;;;;;5049532;28;20376;-60
2023/02/14 00:58:38;;;;;;;5.18;3.70;;;7.00;72.40;;;;;;5054293;28;20029;-60
2023/02/14 01:01:03;;;;;;;7.43;4.05;;;7.00;71.70;;;;;;5052076;28;20112;-60
2023/02/14 01:03:30;;;;;;;6.28;3.30;;;7.00;71.70;;;;;;5054082;28;20033;-61
2023/02/14 01:05:56;;;;;;;4.40;3.03;;;6.90;71.60;;;;;;5051569;28;20021;-60
2023/02/14 01:08:22;;;;;;;6.28;3.42;;;6.90;71.70;;;;;;5048463;28;20621;-61
2023/02/14 01:10:48;;;;;;;4.18;3.08;;;6.90;71.70;;;;;;5051101;28;20079;-60
2023/02/14 01:13:14;;;;;;;7.25;4.03;;;6.90;71.80;;;;;;5047771;28;20036;-59
2023/02/14 01:15:43;;;;;;;4.35;3.08;;;6.80;71.80;;;;;;5049592;28;20013;-60
2023/02/14 01:18:10;;;;;;;5.70;3.35;;;6.80;71.80;;;;;;5050169;28;20025;-58
2023/02/14 01:20:36;;;;;;;4.15;3.05;;;6.80;71.90;;;;;;5050166;28;20487;-59
2023/02/14 01:23:02;;;;;;;6.40;3.90;;;6.80;72.00;;;;;;5055240;28;20124;-60
2023/02/14 01:25:28;;;;;;;5.47;3.83;;;6.70;72.00;;;;;;5051495;28;20040;-58
2023/02/14 01:27:54;;;;;;;7.18;3.38;;;6.70;72.10;;;;;;5051268;28;20029;-58
2023/02/14 01:30:20;;;;;;;5.13;2.95;;;6.70;72.10;;;;;;5050307;28;20389;-58
2023/02/14 01:32:45;;;;;;;5.22;3.63;;;6.70;72.20;;;;;;5045024;28;20025;-59
2023/02/14 01:35:11;;;;;;;6.30;4.50;;;6.60;72.20;;;;;;5052170;28;20040;-58
2023/02/14 01:37:37;;;;;;;11.02;3.83;;;6.60;72.20;;;;;;5049215;28;20021;-59
2023/02/14 01:40:07;;;;;;;7.10;3.88;;;6.60;72.20;;;;;;5051790;28;20086;-59
2023/02/14 01:42:33;;;;;;;5.30;3.42;;;6.60;72.20;;;;;;5051755;28;20029;-59
2023/02/14 01:45:16;;;;;;;7.28;4.55;;;6.60;72.30;;;;;;5054454;28;20021;-59
2023/02/14 01:47:45;;;;;;;5.70;3.13;;;6.50;72.30;;;;;;5045269;28;20078;-59
2023/02/14 01:50:21;;;;;;;5.15;3.17;;;6.50;72.40;;;;;;5052945;28;20457;-60
2023/02/14 01:52:51;;;;;;;4.72;2.58;;;6.50;72.40;;;;;;5051552;28;20053;-60
2023/02/14 01:55:25;;;;;;;7.43;3.58;;;6.50;72.50;;;;;;5049852;28;20120;-60
2023/02/14 01:57:58;;;;;;;6.05;4.45;;;6.40;72.50;;;;;;5053514;28;20507;-60
2023/02/14 02:03:09;;;;;;;5.15;3.25;;;6.40;72.70;;;;;;5043645;28;20602;-60
2023/02/14 02:05:41;;;;;;;5.05;3.65;;;6.30;72.90;;;;;;5050326;28;20120;-60
2023/02/14 02:08:07;;;;;;;6.17;3.67;;;6.30;73.20;;;;;;5049461;28;20037;-59
2023/02/14 02:10:32;;;;;;;6.38;4.28;;;6.30;73.20;;;;;;5055306;28;20036;-59
2023/02/14 02:13:04;;;;;;;7.72;3.50;;;6.30;73.20;;;;;;5075391;28;20032;-60
2023/02/14 02:15:35;;;;;;;5.60;3.60;;;6.30;73.20;;;;;;5050876;28;20096;-60
2023/02/14 02:18:15;;;;;;;7.50;4.00;;;6.30;73.30;;;;;;5047287;28;20124;-60
2023/02/14 02:21:05;;;;;;;4.40;3.33;;;6.30;73.50;;;;;;5048987;28;20388;-60
2023/02/14 02:24:00;;;;;;;7.22;3.60;;;6.30;73.50;;;;;;5050145;28;20064;-58
2023/02/14 02:26:46;;;;;;;5.88;3.75;;;6.20;73.50;;;;;;5047733;28;20048;-59
2023/02/14 02:29:47;;;;;;;8.02;4.32;;;6.20;73.50;;;;;;5048476;28;20068;-60
2023/02/14 02:32:47;;;;;;;9.10;3.72;;;6.10;73.80;;;;;;5042715;28;20039;-58
2023/02/14 02:35:40;;;;;;;9.77;4.53;;;6.10;74.30;;;;;;5038248;28;20033;-59
2023/02/14 02:38:11;;;;;;;12.35;4.10;;;6.10;74.60;;;;;;5046015;28;20094;-58
2023/02/14 02:40:51;;;;;;;4.85;3.55;;;6.00;74.70;;;;;;5039542;28;20021;-58
2023/02/14 02:43:44;;;;;;;7.43;4.38;;;6.10;74.50;;;;;;5048916;28;20109;-58
2023/02/14 02:58:23;;;;;;;9.90;4.18;;;6.00;73.90;;;;;;5046635;28;20072;-59
2023/02/14 03:00:52;;;;;;;7.97;4.60;;;5.90;74.00;;;;;;5050282;28;20403;-60
2023/02/14 03:06:05;;;;;;;4.97;3.55;;;5.90;74.00;;;;;;5045293;28;20043;-60
2023/02/14 03:08:31;;;;;;;4.18;3.45;;;5.90;73.90;;;;;;5048887;28;20024;-60
2023/02/14 03:10:57;;;;;;;7.05;3.65;;;5.90;74.00;;;;;;5057204;28;20033;-59
2023/02/14 03:13:40;;;;;;;5.53;4.22;;;5.90;74.00;;;;;;5040785;28;20037;-59
2023/02/14 03:16:53;;;;;;;6.45;3.67;;;5.90;73.80;;;;;;5047475;28;20547;-60
2023/02/14 03:19:35;;;;;;;5.68;4.03;;;5.90;73.70;;;;;;5014634;28;20041;-60
2023/02/14 03:22:12;;;;;;;4.25;3.00;;;5.80;73.80;;;;;;5048589;28;20476;-60
2023/02/14 03:25:00;;;;;;;8.77;3.45;;;5.80;73.90;;;;;;5044935;28;20020;-61
2023/02/14 03:27:29;;;;;;;7.07;3.88;;;5.70;73.80;;;;;;5046163;28;20036;-60
2023/02/14 03:30:24;;;;;;;7.13;3.67;;;5.70;73.90;;;;;;5080746;28;20060;-60
2023/02/14 03:33:26;;;;;;;6.55;3.67;;;5.70;73.80;;;;;;5045834;28;20628;-60
2023/02/14 03:36:00;;;;;;;5.35;2.90;;;5.70;73.80;;;;;;5038428;28;20055;-59
2023/02/14 03:38:42;;;;;;;5.78;3.30;;;5.60;73.90;;;;;;5056470;28;20020;-59
2023/02/14 03:41:13;;;;;;;5.97;3.47;;;5.60;73.80;;;;;;5042026;28;20025;-60
2023/02/14 03:43:44;;;;;;;7.05;3.88;;;5.60;73.80;;;;;;5044153;28;20067;-58
2023/02/14 03:46:16;;;;;;;5.63;3.75;;;5.60;73.80;;;;;;5047699;28;20028;-59
2023/02/14 03:48:44;;;;;;;4.72;3.17;;;5.60;73.80;;;;;;5048717;28;20270;-60
2023/02/14 03:51:13;;;;;;;6.72;3.53;;;5.60;73.80;;;;;;5049617;28;20078;-60
2023/02/14 03:53:43;;;;;;;7.78;3.78;;;5.60;73.80;;;;;;5046610;28;20053;-60
2023/02/14 03:56:45;;;;;;;6.03;3.63;;;5.50;73.80;;;;;;5042102;28;20040;-60
2023/02/14 03:59:16;;;;;;;6.93;4.47;;;5.50;73.80;;;;;;5044393;28;20033;-59
2023/02/14 04:02:07;;;;;;;7.05;4.00;;;5.50;73.90;;;;;;5047087;28;20096;-59
2023/02/14 04:04:39;;;;;;;4.50;3.42;;;5.50;73.90;;;;;;5037310;28;20041;-59
2023/02/14 04:07:17;;;;;;;4.97;3.40;;;5.40;74.10;;;;;;5045788;28;20075;-59
2023/02/14 04:09:43;;;;;;;4.57;3.17;;;5.40;74.00;;;;;;5045817;28;20029;-59
2023/02/14 04:12:09;;;;;;;4.18;3.33;;;5.40;74.00;;;;;;5042106;28;20076;-60
2023/02/14 04:14:35;;;;;;;6.60;3.60;;;5.40;74.10;;;;;;5047093;28;20013;-60
2023/02/14 04:19:46;;;;;;;6.80;3.58;;;5.40;74.10;;;;;;5041794;28;20045;-60
2023/02/14 04:22:11;;;;;;;6.78;4.43;;;5.30;74.20;;;;;;5045476;28;20018;-59
2023/02/14 04:24:37;;;;;;;9.25;3.65;;;5.30;74.20;;;;;;5050146;28;20419;-60
2023/02/14 04:27:09;;;;;;;8.93;3.65;;;5.30;74.60;;;;;;5050546;28;20037;-59
2023/02/14 04:29:46;;;;;;;6.40;4.07;;;5.20;74.50;;;;;;5046743;28;20052;-59
2023/02/14 04:32:15;;;;;;;4.88;3.75;;;5.30;74.70;;;;;;5040546;28;20029;-60
2023/02/14 04:34:41;;;;;;;7.43;4.25;;;5.20;74.70;;;;;;5046920;28;20026;-61
2023/02/14 04:37:07;;;;;;;6.85;4.13;;;5.20;74.80;;;;;;5041660;28;20104;-60
2023/02/14 04:39:34;;;;;;;6.90;4.82;;;5.20;74.90;;;;;;5048101;28;20037;-60
2023/02/14 04:42:00;;;;;;;5.30;3.40;;;5.20;74.90;;;;;;5041838;28;20041;-60
2023/02/14 04:44:26;;;;;;;3.70;2.85;;;5.20;75.00;;;;;;5043432;28;20021;-60
2023/02/14 04:46:53;;;;;;;5.85;3.88;;;5.10;75.00;;;;;;5044643;28;20483;-58
2023/02/14 04:49:18;;;;;;;10.93;3.53;;;5.20;75.00;;;;;;5039291;28;20021;-58
2023/02/14 04:51:44;;;;;;;6.07;3.85;;;5.10;74.90;;;;;;5044508;28;20051;-58
2023/02/14 04:54:10;;;;;;;5.22;3.45;;;5.10;74.90;;;;;;5041877;28;20026;-58
2023/02/14 04:56:36;;;;;;;6.68;4.00;;;5.10;74.80;;;;;;5050556;28;20514;-58
2023/02/14 04:59:02;;;;;;;6.18;4.15;;;5.10;74.70;;;;;;5042610;28;20465;-59
2023/02/14 05:01:27;;;;;;;5.10;4.30;;;5.20;74.70;;;;;;5052648;28;20025;-59
2023/02/14 05:03:53;;;;;;;6.10;3.60;;;5.10;74.80;;;;;;5046399;28;20029;-57
2023/02/14 05:06:19;;;;;;;7.43;4.05;;;5.10;74.80;;;;;;5038914;28;20460;-59
2023/02/14 05:08:44;;;;;;;4.72;3.20;;;5.10;74.90;;;;;;5056341;28;20093;-59
2023/02/14 05:11:11;;;;;;;6.50;4.45;;;5.00;74.90;;;;;;5050765;28;20033;-60
2023/02/14 05:13:37;;;;;;;6.43;4.72;;;5.00;75.50;;;;;;5054782;28;20048;-59
2023/02/14 05:16:03;;;;;;;9.95;4.70;;;5.00;75.10;;;;;;5051982;28;20063;-60
2023/02/14 05:18:28;;;;;;;5.40;4.50;;;5.00;75.20;;;;;;5053970;28;20024;-59
2023/02/14 05:20:54;;;;;;;6.63;3.28;;;5.00;75.30;;;;;;5048164;28;20017;-59
2023/02/14 05:23:21;;;;;;;6.25;4.05;;;5.00;75.20;;;;;;5051345;28;20511;-59
2023/02/14 05:25:48;;;;;;;7.00;4.15;;;5.00;75.20;;;;;;5050846;28;20044;-61
2023/02/14 05:28:14;;;;;;;5.72;3.67;;;4.90;75.20;;;;;;5047817;28;20475;-60
2023/02/14 05:30:40;;;;;;;4.22;3.63;;;4.90;75.30;;;;;;5045478;28;20044;-60
2023/02/14 05:33:06;;;;;;;4.95;3.17;;;4.90;75.20;;;;;;5046834;28;20048;-60
2023/02/14 05:35:31;;;;;;;5.65;3.63;;;4.90;75.20;;;;;;5038630;28;20029;-60
2023/02/14 05:37:57;;;;;;;8.25;4.15;;;4.90;75.20;;;;;;5051674;28;20124;-59
2023/02/14 05:40:24;;;;;;;5.80;4.00;;;4.90;75.20;;;;;;5060423;28;20025;-58
2023/02/14 05:42:51;;;;;;;7.78;4.05;;;4.90;75.30;;;;;;5052351;28;20036;-59
2023/02/14 05:45:17;;;;;;;7.45;3.50;;;4.80;75.30;;;;;;5047971;28;20082;-58
2023/02/14 05:47:43;;;;;;;6.55;3.33;;;4.90;75.40;;;;;;5048893;28;20435;-58
2023/02/14 05:50:09;;;;;;;5.72;3.28;;;4.80;75.30;;;;;;5062017;28;20063;-59
2023/02/14 05:52:35;;;;;;;6.00;4.07;;;4.80;75.20;;;;;;5050919;28;20447;-59
2023/02/14 05:55:01;;;;;;;5.40;3.67;;;4.80;75.30;;;;;;5051746;28;20026;-58
2023/02/14 05:57:27;;;;;;;4.72;3.63;;;4.80;75.30;;;;;;5041920;28;20071;-59
2023/02/14 05:59:52;;;;;;;4.38;3.50;;;4.70;75.20;;;;;;5055034;28;20039;-59
2023/02/14 06:02:18;;;;;;;5.50;3.70;;;4.70;75.30;;;;;;5043455;28;20048;-59
2023/02/14 06:04:44;;;;;;;6.07;3.88;;;4.70;75.30;;;;;;5051013;28;20017;-60
2023/02/14 06:07:09;;;;;;;4.88;3.85;;;4.70;75.40;;;;;;5048290;28;20122;-60
2023/02/14 06:09:35;;;;;;;5.00;3.33;;;4.70;75.40;;;;;;5050224;28;20029;-60
2023/02/14 06:12:01;;;;;;;4.70;3.00;;;4.70;75.40;;;;;;5050391;28;20036;-60
2023/02/14 06:14:27;;;;;;;6.70;3.83;;;4.70;75.40;;;;;;5048361;28;20484;-59
2023/02/14 06:16:52;;;;;;;5.43;3.60;;;4.60;75.40;;;;;;5047771;28;20037;-60
2023/02/14 06:19:18;;;;;;;5.22;3.78;;;4.60;75.40;;;;;;5044786;28;20512;-60
2023/02/14 06:21:44;;;;;;;5.05;3.50;;;4.70;75.40;;;;;;5050164;28;20495;-59
2023/02/14 06:24:09;;;;;;;5.45;3.50;;;4.60;75.30;;;;;;5051565;28;20438;-59
2023/02/14 06:26:35;;;;;;;4.70;3.53;;;4.60;75.30;;;;;;5046663;28;20128;-59
2023/02/14 06:29:02;;;;;;;6.25;3.75;;;4.60;75.40;;;;;;5047764;28;20403;-59
2023/02/14 06:31:28;;;;;;;4.70;3.50;;;4.60;75.40;;;;;;5047137;28;20111;-59
2023/02/14 06:33:54;;;;;;;5.63;3.40;;;4.60;75.50;;;;;;5050443;28;20158;-59
2023/02/14 06:36:21;;;;;;;8.77;4.38;;;4.60;75.50;;;;;;5046636;28;20029;-59
2023/02/14 06:38:48;;;;;;;9.02;3.97;;;4.60;75.50;;;;;;5052177;28;20021;-59
2023/02/14 06:41:15;;;;;;;5.40;4.03;;;4.60;75.50;;;;;;5050797;28;20071;-60
2023/02/14 06:43:42;;;;;;;5.95;3.92;;;4.50;75.40;;;;;;5042745;28;20392;-60
2023/02/14 06:46:08;;;;;;;7.25;3.80;;;4.50;75.40;;;;;;5049682;28;20060;-60
2023/02/14 06:48:34;;;;;;;4.63;3.33;;;4.50;75.50;;;;;;5047766;28;20058;-60
2023/02/14 06:51:00;;;;;;;8.10;4.43;;;4.40;75.50;;;;;;5056700;28;20575;-60
2023/02/14 06:53:26;;;;;;;8.55;3.75;;;4.40;75.60;;;;;;5037426;28;20026;-60
2023/02/14 06:55:52;;;;;;;5.25;4.55;;;4.40;75.70;;;;;;5049304;28;20033;-60
2023/02/14 06:58:18;;;;;;;5.43;3.15;;;4.40;75.70;;;;;;5042671;28;20021;-60
2023/02/14 07:00:43;;;;;;;8.80;4.50;;;4.40;75.90;;;;;;5039920;28;20408;-60
2023/02/14 07:03:09;;;;;;;7.72;3.95;;;4.40;76.10;;;;;;5052090;28;20047;-60
2023/02/14 07:05:35;;;;;;;5.85;4.22;;;4.40;76.20;;;;;;5043999;28;20033;-60
2023/02/14 07:08:01;;;;;;;4.80;3.92;;;4.40;76.10;;;;;;5046615;28;20043;-60
2023/02/14 07:10:27;;;;;;;5.95;4.60;;;4.40;76.10;;;;;;5030466;28;20500;-59
2023/02/14 07:12:53;;;;;;;5.68;3.70;;;4.40;76.10;;;;;;5035602;28;20041;-60
2023/02/14 07:15:19;;;;;;;6.30;4.40;;;4.40;76.10;;;;;;5043613;28;20024;-60
2023/02/14 07:17:45;;;;;;;5.25;3.90;;;4.40;76.00;;;;;;5033529;28;20636;-60
2023/02/14 07:20:12;;;;;;;6.00;4.45;;;4.40;76.10;;;;;;5040184;28;20025;-59
2023/02/14 07:22:38;;;;;;;9.45;4.82;;;4.40;76.20;;;;;;5043602;28;20041;-59
2023/02/14 07:25:05;;;;;;;9.35;4.10;;;4.40;76.30;;;;;;5037509;28;20078;-60
2023/02/14 07:27:32;;;;;;;4.68;3.78;;;4.30;76.40;;;;;;5031760;28;20480;-60
2023/02/14 07:29:58;;;;;;;7.10;3.58;;;4.40;76.50;;;;;;5037793;28;20062;-59
2023/02/14 07:32:24;;;;;;;6.10;3.67;;;4.40;76.70;;;;;;5037971;28;20033;-59
2023/02/14 07:34:50;;;;;;;6.60;4.75;;;4.40;76.70;;;;;;5066499;28;20100;-59
2023/02/14 07:37:16;;;;;;;7.35;3.20;;;4.40;76.80;;;;;;5037679;28;20499;-61
2023/02/14 07:39:43;;;;;;;5.03;3.50;;;4.40;76.70;;;;;;5052586;28;20025;-65
2023/02/14 07:42:09;;;;;;;5.88;3.92;;;4.50;76.80;;;;;;5034869;28;20030;-61
2023/02/14 07:44:37;;;;;;;4.40;3.47;;;4.50;77.00;;;;;;5042444;28;20029;-61
2023/02/14 07:47:04;;;;;;;5.38;3.55;;;4.50;77.00;;;;;;5045879;28;20041;-60
2023/02/14 07:49:30;;;;;;;6.18;4.07;;;4.50;77.10;;;;;;5047545;28;20490;-61
2023/02/14 07:51:56;;;;;;;6.32;4.32;;;4.60;77.20;;;;;;5041239;28;20045;-61
2023/02/14 07:54:21;;;;;;;5.05;4.03;;;4.70;77.10;;;;;;5045785;28;20033;-61
2023/02/14 07:56:47;;;;;;;7.63;4.13;;;4.70;77.10;;;;;;5042457;28;20067;-60
2023/02/14 07:59:13;;;;;;;8.55;5.10;;;4.70;77.60;;;;;;5029481;28;20029;-60
2023/02/14 08:01:38;;;;;;;8.25;4.40;;;4.80;77.10;;;;;;5038931;28;20392;-60
2023/02/14 08:04:04;;;;;;;4.60;3.20;;;4.90;77.60;;;;;;5044013;28;20036;-60
2023/02/14 08:06:30;;;;;;;4.80;3.83;;;4.90;76.90;;;;;;5041701;28;20029;-60
2023/02/14 08:08:55;;;;;;;5.45;4.00;;;5.00;76.90;;;;;;5042211;28;20044;-60
2023/02/14 08:14:05;;;;;;;5.15;2.97;;;5.10;76.80;;;;;;5042181;28;20044;-60
2023/02/14 08:16:33;;;;;;;6.85;4.47;;;5.20;76.80;;;;;;5044634;28;20029;-61
2023/02/14 08:18:59;;;;;;;5.22;4.28;;;5.30;76.80;;;;;;5043249;28;20115;-60
2023/02/14 08:21:24;;;;;;;7.72;4.60;;;5.40;76.80;;;;;;5042210;28;20112;-60
2023/02/14 08:23:50;;;;;;;3.60;3.22;;;5.40;76.80;;;;;;5045236;28;20032;-58
2023/02/14 08:26:16;;;;;;;7.78;4.97;;;5.50;76.80;;;;;;5041978;28;20042;-59
2023/02/14 08:28:42;;;;;;;6.22;3.95;;;5.60;76.70;;;;;;5046704;28;20549;-60
2023/02/14 08:31:08;;;;;;;5.68;4.05;;;5.70;76.60;;;;;;5045311;28;20049;-61
2023/02/14 08:33:34;;;;;;;7.93;5.13;;;5.80;76.50;;;;;;5047759;28;20028;-61
2023/02/14 08:35:59;;;;;;;6.50;4.78;;;5.90;76.40;;;;;;5046883;28;20457;-61
2023/02/14 08:38:25;;;;;;;4.93;4.43;;;6.00;76.70;;;;;;5033806;28;20017;-63
2023/02/14 08:40:51;;;;;;;7.07;5.00;;;6.10;76.60;;;;;;5049453;28;20083;-61
2023/02/14 08:43:17;;;;;;;5.25;3.88;;;6.10;76.60;;;;;;5042239;28;20031;-60
2023/02/14 08:45:42;;;;;;;7.00;4.40;;;6.20;76.50;;;;;;5043314;28;20025;-60
2023/02/14 08:48:10;;;;;;;9.27;5.38;;;6.30;76.60;;;;;;5049953;28;20021;-60
2023/02/14 08:50:37;;;;;;;7.07;4.88;;;6.40;76.60;;;;;;5062182;28;20083;-59
2023/02/14 08:53:10;;;;;;;9.70;5.18;;;6.50;76.80;;;;;;5046321;28;20431;-57
2023/02/14 08:55:36;;;;;;;5.47;3.75;;;6.60;76.70;;;;;;5043848;28;20077;-60
2023/02/14 08:58:02;;;;;;;7.63;4.60;;;6.70;77.10;;;;;;5047058;28;20460;-57
2023/02/14 09:00:29;;;;;;;5.03;3.60;;;6.80;76.60;;;;;;5044362;28;20480;-59
2023/02/14 09:02:54;;;;;;;8.32;5.30;;;6.80;76.50;;;;;;5048237;28;20029;-59
2023/02/14 09:05:22;;;;;;;8.75;4.43;;;6.90;76.20;;;;;;5046373;28;20392;-58
2023/02/14 09:07:48;;;;;;;9.32;4.13;;;7.10;76.20;;;;;;5045629;28;20028;-58
2023/02/14 09:10:15;;;;;;;4.60;3.47;;;7.20;76.00;;;;;;5049315;28;20036;-58
2023/02/14 09:12:41;;;;;;;7.32;4.50;;;7.30;75.90;;;;;;5045174;28;20041;-59
2023/02/14 09:15:09;;;;;;;8.75;4.70;;;7.40;75.90;;;;;;5048491;28;20385;-58
2023/02/14 09:17:35;;;;;;;9.15;5.22;;;7.60;75.90;;;;;;5046195;28;20059;-59
2023/02/14 09:20:01;;;;;;;7.63;4.72;;;7.70;75.80;;;;;;5052183;28;20079;-58
2023/02/14 09:22:27;;;;;;;7.05;5.25;;;7.80;75.60;;;;;;5043613;28;20029;-55
2023/02/14 09:24:53;;;;;;;6.35;4.95;;;7.90;75.50;;;;;;5043273;28;20046;-59
2023/02/14 09:27:19;;;;;;;8.05;4.82;;;8.10;75.50;;;;;;5045904;28;20017;-58
2023/02/14 09:29:45;;;;;;;6.30;4.05;;;8.20;75.30;;;;;;5048234;28;20048;-57
2023/02/14 09:32:10;;;;;;;8.93;4.40;;;8.40;75.20;;;;;;5036584;28;20468;-57
2023/02/14 09:34:36;;;;;;;6.80;4.72;;;8.60;75.10;;;;;;5040946;28;20029;-59
2023/02/14 09:37:02;;;;;;;7.40;4.60;;;8.70;75.20;;;;;;5045869;28;20029;-58
2023/02/14 09:39:27;;;;;;;6.05;4.75;;;8.80;74.90;;;;;;5042628;28;20039;-58
2023/02/14 09:42:21;;;;;;;7.28;4.55;;;8.90;74.70;;;;;;5041127;28;20026;-57
2023/02/14 09:45:14;;;;;;;7.30;4.50;;;9.10;74.50;;;;;;5038864;28;20036;-58
2023/02/14 09:47:43;;;;;;;5.60;4.53;;;9.20;74.40;;;;;;5046283;28;20033;-58
2023/02/14 09:50:19;;;;;;;6.80;4.32;;;9.40;74.50;;;;;;5045113;28;20043;-57
2023/02/14 09:52:50;;;;;;;7.15;4.55;;;9.50;74.10;;;;;;5046557;28;20041;-58
2023/02/14 09:55:17;;;;;;;8.95;5.05;;;9.60;74.00;;;;;;5041320;28;20055;-60
2023/02/14 09:57:51;;;;;;;10.35;4.68;;;9.70;73.80;;;;;;5046341;28;20037;-60
2023/02/14 10:00:25;;;;;;;5.75;4.05;;;9.90;73.70;;;;;;5039483;28;20447;-60
2023/02/14 10:03:26;;;;;;;6.70;4.55;;;10.00;73.30;;;;;;5047316;28;20035;-59
2023/02/14 10:06:12;;;;;;;8.30;4.88;;;10.10;73.10;;;;;;5048371;28;20649;-60
2023/02/14 10:09:08;;;;;;;6.35;4.13;;;10.30;73.00;;;;;;5035585;28;20051;-57
2023/02/14 10:11:34;;;;;;;7.25;3.90;;;10.40;72.80;;;;;;5045205;28;20028;-58
2023/02/14 10:14:18;;;;;;;10.13;5.38;;;10.60;72.60;;;;;;5047646;28;20029;-57
2023/02/14 10:16:46;;;;;;;13.63;5.18;;;10.70;72.40;;;;;;5043576;28;20037;-57
2023/02/14 10:19:18;;;;;;;9.02;5.00;;;10.90;72.20;;;;;;5047117;28;20032;-58
2023/02/14 10:21:56;;;;;;;11.60;5.45;;;11.00;71.90;;;;;;5041357;28;20033;-58
2023/02/14 10:24:30;;;;;;;8.18;4.75;;;11.10;71.60;;;;;;5051102;28;20050;-58
2023/02/14 10:27:03;;;;;;;6.90;4.72;;;11.20;71.30;;;;;;5037877;28;20033;-60
2023/02/14 10:29:29;;;;;;;10.70;4.80;;;11.30;71.30;;;;;;5044137;28;20071;-59
2023/02/14 10:32:00;;;;;;;6.35;4.97;;;11.40;71.40;;;;;;5044939;28;20037;-59
2023/02/14 10:34:35;;;;;;;10.68;5.53;;;11.50;71.00;;;;;;5039538;28;20030;-62
2023/02/14 10:37:19;;;;;;;12.95;4.50;;;11.60;70.80;;;;;;5046160;28;20036;-62
2023/02/14 10:40:03;;;;;;;8.75;5.53;;;11.70;70.60;;;;;;5049431;28;20060;-62
2023/02/14 10:43:08;;;;;;;8.18;4.35;;;11.90;70.50;;;;;;5044626;28;20448;-59
2023/02/14 10:45:46;;;;;;;6.72;4.35;;;12.00;70.10;;;;;;5048864;28;20508;-58
2023/02/14 10:48:45;;;;;;;8.93;4.68;;;12.20;69.90;;;;;;5045925;28;20088;-59
2023/02/14 10:51:30;;;;;;;12.70;5.68;;;12.30;69.60;;;;;;5039669;28;20055;-59
2023/02/14 10:54:20;;;;;;;8.93;5.03;;;12.50;69.30;;;;;;5038902;28;20550;-58
2023/02/14 10:56:54;;;;;;;9.32;4.57;;;12.70;68.70;;;;;;5039036;28;20438;-59
2023/02/14 10:59:41;;;;;;;9.18;5.40;;;12.80;67.90;;;;;;5046309;28;20024;-58
2023/02/14 11:02:14;;;;;;;9.45;6.05;;;12.80;67.40;;;;;;5044015;28;20029;-57
2023/02/14 11:04:41;;;;;;;9.95;6.18;;;13.00;67.10;;;;;;5043278;28;20017;-58
2023/02/14 11:07:18;;;;;;;10.18;5.03;;;13.20;66.60;;;;;;5043061;28;20036;-56
2023/02/14 11:09:44;;;;;;;7.03;4.55;;;13.30;65.90;;;;;;5044357;28;20026;-58
2023/02/14 11:12:10;;;;;;;7.32;3.75;;;13.40;65.70;;;;;;5048597;28;20450;-57
2023/02/14 11:14:39;;;;;;;5.80;3.55;;;13.50;65.30;;;;;;5045908;28;20423;-58
2023/02/14 11:17:28;;;;;;;6.40;4.72;;;13.60;65.00;;;;;;5063843;28;20056;-58
2023/02/14 11:20:21;;;;;;;9.57;4.90;;;13.80;64.00;;;;;;5044686;28;20025;-58
2023/02/14 11:22:48;;;;;;;8.40;5.50;;;13.90;64.10;;;;;;5033496;28;20048;-59
2023/02/14 11:25:22;;;;;;;9.45;5.15;;;14.20;63.80;;;;;;5045343;28;20044;-59
2023/02/14 11:27:58;;;;;;;7.80;4.30;;;14.40;63.00;;;;;;5043551;28;20489;-59
2023/02/14 11:30:39;;;;;;;8.73;5.40;;;14.50;62.40;;;;;;5028757;28;20044;-59
2023/02/14 11:33:09;;;;;;;9.60;5.10;;;14.60;61.80;;;;;;5039400;28;20041;-57
2023/02/14 11:35:37;;;;;;;5.38;4.32;;;14.70;61.90;;;;;;5043699;28;20057;-57
2023/02/14 11:38:10;;;;;;;7.07;4.60;;;14.80;61.60;;;;;;5039922;28;20532;-57
2023/02/14 11:40:36;;;;;;;;;;;15.00;61.40;;;;;;5037237;28;20025;-57
2023/02/14 11:43:11;;;;;;;7.22;4.47;;;15.10;60.90;;;;;;5039994;28;19909;-57
2023/02/14 11:45:39;;;;;;;9.57;4.63;;;15.10;59.90;;;;;;5035777;28;20024;-57
2023/02/14 11:48:11;;;;;;;7.03;4.68;;;15.20;59.90;;;;;;5034738;28;20090;-58
2023/02/14 11:50:38;;;;;;;8.63;5.03;;;15.30;59.40;;;;;;5035905;28;20049;-56
2023/02/14 11:53:04;;;;;;;8.90;4.43;;;15.40;58.60;;;;;;5043493;28;20033;-57
2023/02/14 11:55:35;;;;;;;7.72;4.35;;;15.60;58.60;;;;;;5079153;28;20447;-57
2023/02/14 11:58:03;;;;;;;6.90;4.25;;;15.70;58.20;;;;;;5048065;28;20025;-57
2023/02/14 12:00:30;;;;;;;9.60;4.40;;;15.70;58.00;;;;;;5043577;28;20255;-62
2023/02/14 12:02:58;;;;;;;6.97;4.50;;;15.70;57.60;;;;;;5048836;28;20061;-58
2023/02/14 12:05:34;;;;;;;8.25;5.07;;;15.90;57.80;;;;;;5049791;28;20436;-58
2023/02/14 12:08:03;;;;;;;7.20;4.55;;;15.90;57.20;;;;;;5046343;28;20503;-57
2023/02/14 12:10:36;;;;;;;8.18;3.97;;;15.90;57.20;;;;;;5047660;28;20438;-57
2023/02/14 12:13:21;;;;;;;7.38;4.28;;;16.20;56.90;;;;;;5040645;28;20033;-58
2023/02/14 12:15:51;;;;;;;7.93;4.18;;;16.40;56.60;;;;;;5066024;28;20444;-58
2023/02/14 12:18:45;;;;;;;7.03;3.63;;;16.70;56.60;;;;;;5045010;28;20075;-59
2023/02/14 12:21:16;;;;;;;5.97;3.60;;;17.30;55.80;;;;;;5050561;28;20028;-59
2023/02/14 12:23:55;;;;;;;7.20;4.22;;;18.40;53.80;;;;;;5045192;28;20025;-58
2023/02/14 12:26:26;;;;;;;7.18;4.20;;;19.70;50.50;;;;;;5045587;28;20099;-57
2023/02/14 12:29:18;;;;;;;7.20;3.47;;;21.40;47.50;;;;;;5049340;28;20055;-57
2023/02/14 12:31:46;;;;;;;10.10;3.83;;;23.20;43.20;;;;;;5031881;28;20043;-59
2023/02/14 12:34:13;;;;;;;6.43;4.20;;;24.50;41.40;;;;;;5046209;28;20464;-58
2023/02/14 12:37:14;;;;;;;6.72;2.63;;;25.50;39.80;;;;;;5048021;28;20891;-58
2023/02/14 12:40:17;;;;;;;6.65;4.10;;;26.50;38.60;;;;;;5047574;28;20021;-58
2023/02/14 12:42:55;;;;;;;5.22;3.58;;;27.60;37.20;;;;;;5035967;28;20029;-59
2023/02/14 12:45:42;;;;;;;5.53;2.83;;;28.50;35.70;;;;;;5049786;28;20025;-59
2023/02/14 12:48:22;;;;;;;5.43;2.75;;;29.30;35.00;;;;;;5046315;28;20024;-59
2023/02/14 12:51:15;;;;;;;6.05;3.33;;;29.90;33.70;;;;;;5051283;28;20029;-59
2023/02/14 12:54:07;;;;;;;4.38;2.75;;;30.50;32.90;;;;;;5044986;28;20029;-59
2023/02/14 12:56:45;;;;;;;4.03;2.70;;;31.10;32.60;;;;;;5043465;28;20592;-59
2023/02/14 12:59:18;;;;;;;3.72;2.78;;;31.60;31.70;;;;;;5045087;28;20344;-57
2023/02/14 13:02:15;;;;;;;3.72;2.25;;;31.60;31.30;;;;;;5045808;28;20032;-57
2023/02/14 13:04:55;;;;;;;4.38;2.20;;;31.30;31.30;;;;;;5047496;28;20070;-60
2023/02/14 13:07:45;;;;;;;3.75;2.50;;;31.30;31.70;;;;;;5048539;28;20071;-59
2023/02/14 13:10:34;;;;;;;4.38;2.33;;;31.60;31.10;;;;;;5049635;28;20439;-59
2023/02/14 13:13:30;;;;;;;3.40;2.35;;;31.60;31.00;;;;;;5042351;28;20125;-58
2023/02/14 13:16:16;;;;;;;4.00;3.08;;;31.20;30.90;;;;;;5049666;28;20047;-58
2023/02/14 13:19:01;;;;;;;4.47;3.33;;;30.50;31.40;;;;;;5049334;28;20013;-57
2023/02/14 13:21:30;;;;;;;4.05;2.83;;;30.20;31.80;;;;;;5048430;28;20021;-57
2023/02/14 13:24:23;;;;;;;4.80;2.78;;;29.90;32.10;;;;;;5045215;28;20419;-58
2023/02/14 13:26:54;;;;;;;5.97;3.53;;;29.50;31.80;;;;;;5050888;28;20460;-60
2023/02/14 13:29:24;;;;;;;3.83;2.78;;;28.40;32.90;;;;;;5049414;28;20510;-60
2023/02/14 13:31:51;;;;;;;6.80;2.97;;;27.40;33.30;;;;;;5049009;28;20353;-58
2023/02/14 13:34:26;;;;;;;5.50;3.45;;;26.90;33.80;;;;;;5046629;28;20033;-57
2023/02/14 13:36:53;;;;;;;2.67;2.28;;;26.70;33.90;;;;;;5050923;28;20033;-58
2023/02/14 13:40:00;;;;;;;11.75;3.22;;;26.60;34.60;;;;;;5050860;28;20426;-58
2023/02/14 13:42:51;;;;;;;4.50;2.97;;;26.80;33.90;;;;;;5042121;28;20028;-58